Time;durP1;ratioP1;P1;durP2;ratioP2;P2;SDS_P1;SDS_P2;PMS_P1;PMS_P2;Temp;Humidity;BMP_temperature;BMP_pressure;BME280_temperature;BME280_humidity;BME280_pressure;Samples;Min_cycle;Max_cycle;Signal;HPM_P1;HPM_P2
2022/06/27 00:01:47;;;;;;;3.03;2.83;;;27.40;50.50;;;;;;5057046;28;20469;-85
2022/06/27 00:04:14;;;;;;;3.70;3.50;;;27.30;50.90;;;;;;5055800;28;20452;-85
2022/06/27 00:06:42;;;;;;;4.90;3.63;;;27.20;51.10;;;;;;5054114;28;20994;-86
2022/06/27 00:09:09;;;;;;;6.60;3.70;;;27.20;51.50;;;;;;5055979;28;20456;-85
2022/06/27 00:11:36;;;;;;;5.37;4.07;;;27.20;51.70;;;;;;5053830;28;20492;-87
2022/06/27 00:14:04;;;;;;;4.57;4.23;;;27.00;52.10;;;;;;5051435;28;20456;-87
2022/06/27 00:16:31;;;;;;;4.80;4.40;;;26.80;52.90;;;;;;5022134;28;20456;-87
2022/06/27 00:18:58;;;;;;;5.57;4.47;;;26.70;53.20;;;;;;5051755;28;20452;-87
2022/06/27 00:21:25;;;;;;;8.30;4.10;;;26.80;53.30;;;;;;5052661;28;20558;-88
2022/06/27 00:23:53;;;;;;;5.80;5.37;;;26.80;53.10;;;;;;5054407;28;20796;-86
2022/06/27 00:26:20;;;;;;;5.93;5.33;;;26.80;53.70;;;;;;5056190;28;20461;-85
2022/06/27 00:28:47;;;;;;;6.33;5.80;;;27.00;53.90;;;;;;5054575;28;20484;-89
2022/06/27 00:31:14;;;;;;;6.27;5.77;;;27.00;53.60;;;;;;5056077;28;20453;-85
2022/06/27 00:33:41;;;;;;;7.00;6.43;;;26.90;53.40;;;;;;5054158;28;21136;-86
2022/06/27 00:36:08;;;;;;;6.67;6.13;;;26.80;54.20;;;;;;5052489;28;20450;-85
2022/06/27 00:38:35;;;;;;;6.90;6.30;;;26.60;55.30;;;;;;5061170;28;20465;-87
2022/06/27 00:41:03;;;;;;;7.17;6.47;;;26.50;55.30;;;;;;5051420;28;20968;-85
2022/06/27 00:43:30;;;;;;;7.50;6.47;;;25.80;56.10;;;;;;5064836;28;20450;-86
2022/06/27 00:45:57;;;;;;;7.13;6.57;;;25.60;57.30;;;;;;5044108;28;20489;-86
2022/06/27 00:48:24;;;;;;;7.77;7.07;;;25.60;57.60;;;;;;5033861;28;20464;-87
2022/06/27 00:50:51;;;;;;;9.47;6.57;;;25.40;57.70;;;;;;5032093;28;20450;-90
2022/06/27 00:53:19;;;;;;;8.60;6.60;;;25.20;59.00;;;;;;5040526;28;20473;-88
2022/06/27 00:55:46;;;;;;;9.17;6.03;;;25.00;59.30;;;;;;5054904;28;21111;-88
2022/06/27 00:58:15;;;;;;;7.07;6.53;;;24.70;59.90;;;;;;5053325;28;20457;-89
2022/06/27 01:00:42;;;;;;;7.53;6.83;;;24.60;59.80;;;;;;5054156;28;20461;-89
2022/06/27 01:03:09;;;;;;;15.60;7.87;;;24.50;61.30;;;;;;5070716;28;20468;-87
2022/06/27 01:05:36;;;;;;;7.83;7.13;;;24.90;60.80;;;;;;5030962;28;20506;-90
2022/06/27 01:08:05;;;;;;;8.03;7.30;;;25.20;59.90;;;;;;5056232;28;20656;-88
2022/06/27 01:10:33;;;;;;;8.43;7.63;;;25.40;59.60;;;;;;5051407;28;20444;-89
2022/06/27 01:13:00;;;;;;;7.90;7.10;;;25.20;59.50;;;;;;5049157;28;20546;-90
2022/06/27 01:15:29;;;;;;;7.67;6.93;;;25.20;59.70;;;;;;5068566;28;20445;-87
2022/06/27 01:17:57;;;;;;;8.17;7.47;;;25.20;60.00;;;;;;5036053;28;20449;-88
2022/06/27 01:20:25;;;;;;;8.20;7.20;;;25.50;59.80;;;;;;5073144;28;20535;-88
2022/06/27 01:22:55;;;;;;;8.33;7.57;;;25.60;59.50;;;;;;5056947;28;20471;-88
2022/06/27 01:25:26;;;;;;;8.83;7.30;;;25.50;59.30;;;;;;5049383;28;20452;-88
2022/06/27 01:27:53;;;;;;;8.23;7.43;;;25.40;60.00;;;;;;5070555;28;20484;-89
2022/06/27 01:30:22;;;;;;;8.17;7.47;;;25.40;59.80;;;;;;5071602;28;20456;-89
2022/06/27 01:32:51;;;;;;;8.50;7.73;;;25.30;60.60;;;;;;5055845;28;20510;-87
2022/06/27 01:35:18;;;;;;;8.20;7.40;;;25.10;60.20;;;;;;5054407;28;20496;-88
2022/06/27 01:37:46;;;;;;;9.10;8.20;;;25.20;60.40;;;;;;5066064;28;20898;-89
2022/06/27 01:40:16;;;;;;;8.57;7.77;;;25.20;60.00;;;;;;5039046;28;20446;-87
2022/06/27 01:42:44;;;;;;;9.07;8.10;;;25.00;60.50;;;;;;5034956;28;20490;-86
2022/06/27 01:45:13;;;;;;;8.00;7.20;;;25.00;60.20;;;;;;5054384;28;20453;-88
2022/06/27 01:47:42;;;;;;;9.50;8.00;;;24.60;61.00;;;;;;5040562;28;20453;-90
2022/06/27 01:50:15;;;;;;;8.23;7.43;;;24.50;62.10;;;;;;5051548;28;20960;-90
2022/06/27 01:52:49;;;;;;;7.30;6.60;;;24.00;63.50;;;;;;5027790;28;20497;-88
2022/06/27 01:55:19;;;;;;;9.60;7.53;;;23.80;64.40;;;;;;5057669;28;20642;-88
2022/06/27 01:57:48;;;;;;;9.30;7.60;;;23.70;64.90;;;;;;5033966;28;21013;-90
2022/06/27 02:00:17;;;;;;;9.40;7.30;;;24.00;64.40;;;;;;5066148;28;20446;-91
2022/06/27 02:03:00;;;;;;;8.90;8.10;;;24.20;63.60;;;;;;5056277;28;20453;-90
2022/06/27 02:05:34;;;;;;;8.53;7.67;;;24.40;63.20;;;;;;5062483;28;20762;-90
2022/06/27 02:08:03;;;;;;;9.30;8.50;;;24.30;63.30;;;;;;5050616;28;20469;-89
2022/06/27 02:10:32;;;;;;;7.70;7.00;;;24.70;63.20;;;;;;5047788;28;20518;-89
2022/06/27 02:13:00;;;;;;;8.93;8.13;;;24.80;62.00;;;;;;5074578;28;20478;-89
2022/06/27 02:15:27;;;;;;;8.40;7.50;;;25.10;62.00;;;;;;5076428;28;20514;-90
2022/06/27 02:17:55;;;;;;;9.73;8.73;;;25.30;61.30;;;;;;5065334;28;20489;-91
2022/06/27 02:20:23;;;;;;;8.37;7.57;;;25.60;60.40;;;;;;5063273;28;20539;-89
2022/06/27 02:22:50;;;;;;;10.93;8.27;;;25.70;59.70;;;;;;5046844;28;20822;-93
2022/06/27 02:25:17;;;;;;;8.60;7.80;;;25.80;59.40;;;;;;5058792;28;20472;-92
2022/06/27 02:27:48;;;;;;;8.70;7.80;;;25.80;59.40;;;;;;5079893;28;20450;-90
2022/06/27 02:30:15;;;;;;;9.17;8.27;;;25.90;58.90;;;;;;5077967;28;20568;-89
2022/06/27 02:32:42;;;;;;;11.80;7.67;;;25.90;59.00;;;;;;5043481;28;20540;-91
2022/06/27 02:35:10;;;;;;;8.70;7.87;;;26.00;58.70;;;;;;5059490;28;20445;-94
2022/06/27 02:37:38;;;;;;;8.00;7.17;;;26.00;58.50;;;;;;5050535;28;20454;-90
2022/06/27 02:40:08;;;;;;;12.83;9.00;;;26.00;58.60;;;;;;5045326;28;20540;-90
2022/06/27 02:42:35;;;;;;;9.70;8.77;;;25.70;58.80;;;;;;5045019;28;20527;-91
2022/06/27 02:45:04;;;;;;;12.03;8.37;;;25.70;59.20;;;;;;5073638;28;20449;-90
2022/06/27 02:47:33;;;;;;;8.90;7.67;;;25.80;59.30;;;;;;5037146;28;20949;-88
2022/06/27 02:50:00;;;;;;;9.70;8.00;;;25.90;58.60;;;;;;5058289;28;20452;-90
2022/06/27 02:52:31;;;;;;;8.80;7.90;;;25.90;58.20;;;;;;5062380;28;20560;-91
2022/06/27 02:55:04;;;;;;;9.70;8.40;;;25.80;58.70;;;;;;5057292;28;20463;-89
2022/06/27 02:57:43;;;;;;;9.30;8.30;;;25.40;59.90;;;;;;5030981;28;20794;-88
2022/06/27 03:00:13;;;;;;;10.50;7.87;;;24.90;61.30;;;;;;5058465;28;20449;-89
2022/06/27 03:02:42;;;;;;;9.20;8.30;;;24.50;62.20;;;;;;5017650;28;20467;-85
2022/06/27 03:05:23;;;;;;;9.33;8.43;;;23.90;63.50;;;;;;5033777;28;20516;-87
2022/06/27 03:07:51;;;;;;;8.23;7.53;;;23.70;66.20;;;;;;5057901;28;20453;-87
2022/06/27 03:10:18;;;;;;;9.67;8.73;;;23.70;65.30;;;;;;5058097;28;20978;-87
2022/06/27 03:12:48;;;;;;;8.17;7.37;;;23.70;65.60;;;;;;5050825;28;20484;-86
2022/06/27 03:15:17;;;;;;;8.50;7.70;;;23.90;65.40;;;;;;5065475;28;20457;-87
2022/06/27 03:17:45;;;;;;;8.33;7.57;;;24.00;65.50;;;;;;5052986;28;20468;-87
2022/06/27 03:20:28;;;;;;;10.00;8.77;;;23.90;64.90;;;;;;5064474;28;20449;-89
2022/06/27 03:23:01;;;;;;;8.70;7.90;;;24.00;65.20;;;;;;5065162;28;20928;-86
2022/06/27 03:25:31;;;;;;;10.10;8.70;;;24.00;65.00;;;;;;5058674;28;20670;-86
2022/06/27 03:27:58;;;;;;;9.73;8.77;;;24.30;63.70;;;;;;5049415;28;20452;-86
2022/06/27 03:30:27;;;;;;;8.60;7.80;;;24.60;63.70;;;;;;5048499;28;20551;-90
2022/06/27 03:32:54;;;;;;;8.43;7.53;;;24.80;62.60;;;;;;5044051;28;21051;-87
2022/06/27 03:35:24;;;;;;;8.53;7.63;;;24.90;62.40;;;;;;5048744;28;20547;-87
2022/06/27 03:37:51;;;;;;;8.80;7.93;;;24.80;62.40;;;;;;5036889;28;20461;-86
2022/06/27 03:40:19;;;;;;;8.80;7.90;;;24.90;61.60;;;;;;5032572;28;20533;-87
2022/06/27 03:42:50;;;;;;;11.57;8.70;;;25.00;61.50;;;;;;5045473;28;21232;-88
2022/06/27 03:45:18;;;;;;;10.33;8.43;;;25.20;61.40;;;;;;5047516;28;20453;-89
2022/06/27 03:47:48;;;;;;;8.10;7.30;;;25.30;60.80;;;;;;5034021;28;20458;-87
2022/06/27 03:50:37;;;;;;;8.70;7.80;;;25.30;59.90;;;;;;5043748;28;20455;-87
2022/06/27 03:53:04;;;;;;;10.23;8.30;;;25.30;59.90;;;;;;5041559;28;20476;-89
2022/06/27 03:55:34;;;;;;;9.70;8.67;;;25.30;60.30;;;;;;5039610;28;20540;-88
2022/06/27 03:58:02;;;;;;;8.10;7.40;;;25.40;59.70;;;;;;5046888;28;20457;-86
2022/06/27 04:00:34;;;;;;;8.50;7.20;;;25.30;59.60;;;;;;5050387;28;20533;-87
2022/06/27 04:03:05;;;;;;;7.93;7.23;;;25.30;59.80;;;;;;5046463;28;20947;-86
2022/06/27 04:05:39;;;;;;;7.60;6.90;;;25.30;60.10;;;;;;5048862;28;20456;-88
2022/06/27 04:08:06;;;;;;;10.40;8.43;;;25.30;60.70;;;;;;5046670;28;20461;-86
2022/06/27 04:10:37;;;;;;;9.30;8.40;;;24.90;61.00;;;;;;5057594;28;20472;-86
2022/06/27 04:13:04;;;;;;;9.33;8.30;;;24.80;61.10;;;;;;5055879;28;20476;-87
2022/06/27 04:16:03;;;;;;;10.90;8.90;;;24.90;61.30;;;;;;5029483;28;20456;-87
2022/06/27 04:18:50;;;;;;;10.57;8.70;;;24.50;61.60;;;;;;5050474;28;20975;-84
2022/06/27 04:21:35;;;;;;;9.70;8.80;;;24.60;62.60;;;;;;5050740;28;21003;-88
2022/06/27 04:24:12;;;;;;;13.73;8.93;;;24.80;62.60;;;;;;5022792;28;20460;-86
2022/06/27 04:26:45;;;;;;;10.30;9.17;;;25.00;61.80;;;;;;5053540;28;20913;-88
2022/06/27 04:29:13;;;;;;;13.27;8.03;;;25.00;61.50;;;;;;5047259;28;20461;-87
2022/06/27 04:31:40;;;;;;;10.93;9.10;;;24.90;60.80;;;;;;5063884;28;20469;-87
2022/06/27 04:34:12;;;;;;;13.80;9.50;;;24.50;62.90;;;;;;5033883;28;21007;-86
2022/06/27 04:36:45;;;;;;;9.07;8.17;;;24.70;62.90;;;;;;5050860;28;20451;-86
2022/06/27 04:39:15;;;;;;;9.60;8.67;;;24.90;62.30;;;;;;5039010;28;20449;-86
2022/06/27 04:41:50;;;;;;;11.60;9.10;;;25.10;61.50;;;;;;5049352;28;20475;-87
2022/06/27 04:44:19;;;;;;;16.67;9.17;;;25.10;61.30;;;;;;5046005;28;20974;-89
2022/06/27 04:46:47;;;;;;;10.07;8.80;;;25.20;60.90;;;;;;5047099;28;20627;-87
2022/06/27 04:49:43;;;;;;;9.07;8.17;;;25.10;61.10;;;;;;5048314;28;20494;-89
2022/06/27 04:52:12;;;;;;;9.53;8.50;;;25.20;61.40;;;;;;5039191;28;20485;-86
2022/06/27 04:54:41;;;;;;;8.70;7.43;;;25.30;61.40;;;;;;5049777;28;21002;-88
2022/06/27 04:57:08;;;;;;;8.53;7.63;;;25.30;61.60;;;;;;5035154;28;20442;-88
2022/06/27 04:59:36;;;;;;;8.27;7.50;;;25.30;61.40;;;;;;5044942;28;20484;-89
2022/06/27 05:02:18;;;;;;;8.60;7.80;;;25.40;60.90;;;;;;5040919;28;21082;-89
2022/06/27 05:04:46;;;;;;;10.33;8.07;;;25.50;60.00;;;;;;5032671;28;20456;-86
2022/06/27 05:07:14;;;;;;;9.43;8.43;;;25.60;59.80;;;;;;5066525;28;21051;-88
2022/06/27 05:09:41;;;;;;;10.97;8.23;;;25.60;59.80;;;;;;5018638;28;20533;-86
2022/06/27 05:12:09;;;;;;;8.47;7.67;;;25.60;59.80;;;;;;5034379;28;21000;-88
2022/06/27 05:14:36;;;;;;;8.63;7.90;;;25.60;60.20;;;;;;5037825;28;20511;-87
2022/06/27 05:17:05;;;;;;;9.30;8.20;;;25.40;60.40;;;;;;5048978;28;20449;-87
2022/06/27 05:19:33;;;;;;;8.40;7.60;;;25.30;60.40;;;;;;5032719;28;20970;-89
2022/06/27 05:22:04;;;;;;;8.87;7.97;;;25.40;60.60;;;;;;5019022;28;20917;-86
2022/06/27 05:24:32;;;;;;;9.67;8.67;;;25.30;60.90;;;;;;5049501;28;21256;-84
2022/06/27 05:26:59;;;;;;;8.50;7.80;;;24.90;62.30;;;;;;5039156;28;20448;-86
2022/06/27 05:29:26;;;;;;;7.93;7.13;;;24.80;62.50;;;;;;5059975;28;20476;-88
2022/06/27 05:31:54;;;;;;;9.13;7.03;;;24.80;62.70;;;;;;5052337;28;20472;-86
2022/06/27 05:34:23;;;;;;;8.20;7.30;;;24.80;62.70;;;;;;5053720;28;20468;-86
2022/06/27 05:36:50;;;;;;;8.17;7.47;;;24.80;63.20;;;;;;5056146;28;20971;-86
2022/06/27 05:39:18;;;;;;;8.13;7.33;;;24.90;63.20;;;;;;5051916;28;20540;-86
2022/06/27 05:41:45;;;;;;;10.07;6.53;;;25.00;63.10;;;;;;5038385;28;20476;-86
2022/06/27 05:44:17;;;;;;;7.63;7.00;;;25.00;61.70;;;;;;5051139;28;20829;-88
2022/06/27 05:46:45;;;;;;;9.30;7.00;;;25.10;62.10;;;;;;5036746;28;20532;-87
2022/06/27 05:49:37;;;;;;;7.93;6.13;;;25.10;61.70;;;;;;5057018;28;20449;-87
2022/06/27 05:52:04;;;;;;;8.13;5.97;;;25.10;61.70;;;;;;5051315;28;20469;-88
2022/06/27 05:54:35;;;;;;;7.50;6.40;;;25.00;62.60;;;;;;5051683;28;20587;-86
2022/06/27 05:57:05;;;;;;;6.50;5.83;;;24.80;62.90;;;;;;5051637;28;20434;-86
2022/06/27 05:59:34;;;;;;;6.80;6.13;;;24.80;62.80;;;;;;5061621;28;20981;-89
2022/06/27 06:02:02;;;;;;;10.33;7.93;;;24.60;62.70;;;;;;5038623;28;20487;-88
2022/06/27 06:04:33;;;;;;;8.20;7.13;;;24.20;64.60;;;;;;5030521;28;20511;-89
2022/06/27 06:07:01;;;;;;;7.40;6.60;;;24.00;64.50;;;;;;5043460;28;20441;-88
2022/06/27 06:09:28;;;;;;;8.90;6.83;;;24.00;64.40;;;;;;5022272;28;20469;-88
2022/06/27 06:11:57;;;;;;;8.27;7.37;;;23.70;64.70;;;;;;5043931;28;20477;-87
2022/06/27 06:14:28;;;;;;;7.40;6.70;;;23.80;65.10;;;;;;5055199;28;20580;-89
2022/06/27 06:16:56;;;;;;;7.73;6.83;;;24.00;65.50;;;;;;5044478;28;20472;-90
2022/06/27 06:19:23;;;;;;;7.70;6.80;;;24.20;64.90;;;;;;5026143;28;20909;-89
2022/06/27 06:21:50;;;;;;;7.10;6.23;;;24.50;64.30;;;;;;5055994;28;20484;-91
2022/06/27 06:24:16;;;;;;;6.47;5.87;;;24.80;63.90;;;;;;5054973;28;20821;-89
2022/06/27 06:26:45;;;;;;;6.17;5.57;;;25.10;62.80;;;;;;5072883;28;20732;-92
2022/06/27 06:29:14;;;;;;;7.03;5.53;;;25.20;62.50;;;;;;5054278;28;21059;-89
2022/06/27 06:31:47;;;;;;;7.13;6.10;;;25.30;61.10;;;;;;5056648;28;20480;-89
2022/06/27 06:34:17;;;;;;;6.27;5.77;;;25.50;60.80;;;;;;5060836;28;20488;-91
2022/06/27 06:36:45;;;;;;;5.60;5.00;;;25.50;60.10;;;;;;5057286;28;20472;-89
2022/06/27 06:39:14;;;;;;;7.23;5.60;;;25.30;60.40;;;;;;5071351;28;20584;-87
2022/06/27 06:41:41;;;;;;;6.03;5.53;;;25.10;60.90;;;;;;5044190;28;20485;-89
2022/06/27 06:44:09;;;;;;;5.97;5.40;;;24.80;60.80;;;;;;5051687;28;20460;-91
2022/06/27 06:46:54;;;;;;;10.50;5.80;;;24.90;61.90;;;;;;5039660;28;20437;-89
2022/06/27 06:49:29;;;;;;;5.67;5.20;;;25.00;62.20;;;;;;5071340;28;20506;-91
2022/06/27 06:51:56;;;;;;;5.43;5.03;;;25.00;61.50;;;;;;5054722;28;20512;-88
2022/06/27 06:54:26;;;;;;;7.33;6.63;;;25.10;61.80;;;;;;5029339;28;20453;-89
2022/06/27 06:56:53;;;;;;;5.57;5.07;;;25.10;61.20;;;;;;5056044;28;21092;-88
2022/06/27 06:59:20;;;;;;;6.40;5.80;;;25.10;60.90;;;;;;5070240;28;20455;-89
2022/06/27 07:01:48;;;;;;;5.37;4.90;;;25.30;61.40;;;;;;5043820;28;20473;-88
2022/06/27 07:04:17;;;;;;;5.53;5.03;;;25.00;61.30;;;;;;5052737;28;20740;-88
2022/06/27 07:06:46;;;;;;;6.30;5.80;;;25.00;62.10;;;;;;5052181;28;21020;-90
2022/06/27 07:09:13;;;;;;;6.00;5.40;;;25.10;61.80;;;;;;5053284;28;20507;-91
2022/06/27 07:11:42;;;;;;;8.77;6.07;;;25.10;60.10;;;;;;5036671;28;20464;-91
2022/06/27 07:14:09;;;;;;;7.07;6.07;;;25.10;61.50;;;;;;5050751;28;20480;-88
2022/06/27 07:16:37;;;;;;;6.73;6.07;;;25.20;61.50;;;;;;5069427;28;20549;-89
2022/06/27 07:19:08;;;;;;;6.33;5.73;;;25.10;61.70;;;;;;5052343;28;20441;-89
2022/06/27 07:21:36;;;;;;;5.33;4.80;;;25.10;61.70;;;;;;5028695;28;20839;-89
2022/06/27 07:24:05;;;;;;;9.27;6.47;;;25.00;61.20;;;;;;5034427;28;20756;-88
2022/06/27 07:26:33;;;;;;;8.10;6.80;;;25.10;61.40;;;;;;5026753;28;20642;-91
2022/06/27 07:29:04;;;;;;;7.47;6.77;;;25.00;61.20;;;;;;5052803;28;20584;-89
2022/06/27 07:31:32;;;;;;;8.10;7.30;;;25.00;60.90;;;;;;5062197;28;20456;-89
2022/06/27 07:34:00;;;;;;;8.13;7.13;;;25.00;61.70;;;;;;5017776;28;20828;-90
2022/06/27 07:36:28;;;;;;;8.23;7.43;;;25.20;61.30;;;;;;5054102;28;20964;-89
2022/06/27 07:38:58;;;;;;;8.80;7.60;;;25.30;60.40;;;;;;5054003;28;20996;-89
2022/06/27 07:41:26;;;;;;;9.17;7.90;;;25.50;60.50;;;;;;5052907;28;20527;-89
2022/06/27 07:43:54;;;;;;;11.50;7.83;;;25.60;60.30;;;;;;5021612;28;20467;-90
2022/06/27 07:46:21;;;;;;;9.00;8.07;;;25.50;59.40;;;;;;5048011;28;20472;-90
2022/06/27 07:48:49;;;;;;;11.70;7.73;;;25.40;60.20;;;;;;5043771;28;20460;-91
2022/06/27 07:51:19;;;;;;;9.60;7.80;;;25.20;60.20;;;;;;5056470;28;20449;-90
2022/06/27 07:53:48;;;;;;;10.47;8.83;;;25.10;61.10;;;;;;5060784;28;20451;-89
2022/06/27 07:56:17;;;;;;;10.90;8.87;;;25.20;61.90;;;;;;5044886;28;20847;-89
2022/06/27 07:58:45;;;;;;;12.03;9.37;;;25.30;62.00;;;;;;5027544;28;20444;-89
2022/06/27 08:01:14;;;;;;;10.07;8.97;;;25.00;62.40;;;;;;5044990;28;20503;-89
2022/06/27 08:03:44;;;;;;;10.47;8.03;;;25.10;62.70;;;;;;5017486;28;20453;-91
2022/06/27 08:06:15;;;;;;;10.30;9.17;;;25.20;62.60;;;;;;5050575;28;20455;-88
2022/06/27 08:08:44;;;;;;;10.33;9.23;;;25.30;62.60;;;;;;5052891;28;20461;-89
2022/06/27 08:11:13;;;;;;;10.27;9.27;;;25.30;62.60;;;;;;5038933;28;20543;-89
2022/06/27 08:13:43;;;;;;;11.70;10.50;;;25.20;63.30;;;;;;5050660;28;20453;-88
2022/06/27 08:16:14;;;;;;;11.27;10.13;;;25.30;63.00;;;;;;5058363;28;20452;-91
2022/06/27 08:18:43;;;;;;;10.87;9.50;;;25.50;62.90;;;;;;5052310;28;20449;-88
2022/06/27 08:21:10;;;;;;;11.90;10.70;;;25.50;62.60;;;;;;5024961;28;20591;-89
2022/06/27 08:23:38;;;;;;;11.70;10.47;;;25.50;61.90;;;;;;5042071;28;20787;-89
2022/06/27 08:26:07;;;;;;;11.23;10.13;;;25.60;62.30;;;;;;5035734;28;20478;-91
2022/06/27 08:28:35;;;;;;;11.97;10.50;;;25.70;62.00;;;;;;5053214;28;20461;-88
2022/06/27 08:31:05;;;;;;;11.70;10.40;;;25.90;61.00;;;;;;5046495;28;21052;-89
2022/06/27 08:33:32;;;;;;;11.20;9.63;;;25.90;61.70;;;;;;5054832;28;20464;-87
2022/06/27 08:36:01;;;;;;;9.57;8.67;;;25.90;62.40;;;;;;5051139;28;20483;-86
2022/06/27 08:38:28;;;;;;;10.80;9.47;;;26.00;60.90;;;;;;5054608;28;20445;-87
2022/06/27 08:40:56;;;;;;;9.73;8.73;;;26.20;61.10;;;;;;5060700;28;20505;-88
2022/06/27 08:43:24;;;;;;;10.43;7.77;;;26.30;60.20;;;;;;5049902;28;20480;-88
2022/06/27 08:45:51;;;;;;;9.77;8.07;;;26.40;58.80;;;;;;5055926;28;20494;-88
2022/06/27 08:48:21;;;;;;;9.67;8.73;;;26.50;60.40;;;;;;5071605;28;20460;-87
2022/06/27 08:50:51;;;;;;;8.93;8.13;;;26.70;59.00;;;;;;5039892;28;20521;-89
2022/06/27 08:53:19;;;;;;;7.90;7.17;;;26.80;57.90;;;;;;5055381;28;20461;-88
2022/06/27 08:55:47;;;;;;;7.13;6.53;;;26.80;57.80;;;;;;5042567;28;20453;-87
2022/06/27 08:58:15;;;;;;;9.53;8.50;;;26.80;56.70;;;;;;5032569;28;20449;-87
2022/06/27 09:00:46;;;;;;;8.53;7.60;;;26.50;56.80;;;;;;5047910;28;20457;-89
2022/06/27 09:03:13;;;;;;;8.07;7.27;;;26.60;58.10;;;;;;5046450;28;20476;-92
2022/06/27 09:05:42;;;;;;;8.33;7.40;;;26.50;57.10;;;;;;5059728;28;20457;-92
2022/06/27 09:08:09;;;;;;;8.07;7.27;;;26.30;57.80;;;;;;5066414;28;20449;-89
2022/06/27 09:10:39;;;;;;;9.43;7.47;;;26.50;58.90;;;;;;5057974;28;20539;-90
2022/06/27 09:13:09;;;;;;;8.37;7.57;;;26.70;58.20;;;;;;5059357;28;20552;-92
2022/06/27 09:15:51;;;;;;;11.43;6.90;;;26.90;57.70;;;;;;5058614;28;20456;-89
2022/06/27 09:18:20;;;;;;;7.10;6.50;;;26.90;58.10;;;;;;5030850;28;20445;-90
2022/06/27 09:20:54;;;;;;;7.40;6.70;;;26.90;58.00;;;;;;5060810;28;20454;-91
2022/06/27 09:23:28;;;;;;;8.03;7.23;;;26.70;58.90;;;;;;5073441;28;20467;-89
2022/06/27 09:26:00;;;;;;;7.53;6.90;;;26.60;58.70;;;;;;5055904;28;20457;-90
2022/06/27 09:28:58;;;;;;;7.70;6.67;;;26.30;59.00;;;;;;5062267;28;20448;-89
2022/06/27 09:31:42;;;;;;;7.23;6.60;;;26.00;59.30;;;;;;4975601;28;20442;-91
2022/06/27 09:34:16;;;;;;;6.80;6.20;;;25.70;60.00;;;;;;5051153;28;20463;-89
2022/06/27 09:36:49;;;;;;;7.13;6.43;;;25.60;60.60;;;;;;5049231;28;20894;-91
2022/06/27 09:39:19;;;;;;;7.73;7.03;;;25.60;61.50;;;;;;5046899;28;20449;-90
2022/06/27 09:41:50;;;;;;;7.47;6.40;;;25.80;60.20;;;;;;5059594;28;20484;-89
2022/06/27 09:44:22;;;;;;;7.73;6.63;;;25.80;59.40;;;;;;5065074;28;20483;-90
2022/06/27 09:47:00;;;;;;;7.70;7.00;;;25.80;59.50;;;;;;5073563;28;20445;-89
2022/06/27 09:49:31;;;;;;;8.60;7.70;;;25.90;60.00;;;;;;5049164;28;20464;-92
2022/06/27 09:52:03;;;;;;;6.93;6.33;;;26.10;59.50;;;;;;5077567;28;20871;-89
2022/06/27 09:54:31;;;;;;;8.17;6.43;;;26.10;59.40;;;;;;5058571;28;22370;-90
2022/06/27 09:56:59;;;;;;;10.23;7.00;;;26.00;59.70;;;;;;5051959;28;20445;-91
2022/06/27 09:59:26;;;;;;;7.60;7.00;;;26.00;60.20;;;;;;5058980;28;20464;-91
2022/06/27 10:01:56;;;;;;;6.33;5.73;;;25.90;60.00;;;;;;5030641;28;20921;-89
2022/06/27 10:04:24;;;;;;;5.60;5.10;;;25.90;59.20;;;;;;5073104;28;20528;-89
2022/06/27 10:06:53;;;;;;;4.97;4.47;;;25.90;59.50;;;;;;5059032;28;20899;-90
2022/06/27 10:09:24;;;;;;;4.50;4.10;;;26.10;59.00;;;;;;5065515;28;20547;-89
2022/06/27 10:12:25;;;;;;;5.63;4.37;;;26.00;58.30;;;;;;5043301;28;20461;-89
2022/06/27 10:15:23;;;;;;;4.60;4.20;;;26.00;58.60;;;;;;5044964;28;20537;-89
2022/06/27 10:17:52;;;;;;;4.93;4.53;;;26.20;59.10;;;;;;5041503;28;20465;-90
2022/06/27 10:20:20;;;;;;;4.87;4.40;;;26.10;59.00;;;;;;5042486;28;20547;-89
2022/06/27 10:23:26;;;;;;;5.07;4.60;;;25.90;57.30;;;;;;5060745;28;20853;-89
2022/06/27 10:25:56;;;;;;;5.00;4.60;;;25.70;58.80;;;;;;5047798;28;20948;-89
2022/06/27 10:28:23;;;;;;;4.70;4.40;;;25.90;58.70;;;;;;5043674;28;20805;-89
2022/06/27 10:30:52;;;;;;;4.83;4.43;;;25.70;58.70;;;;;;5059663;28;20865;-90
2022/06/27 10:33:39;;;;;;;6.40;4.77;;;25.90;58.70;;;;;;5065651;28;20487;-91
2022/06/27 10:36:13;;;;;;;5.10;4.43;;;26.10;58.50;;;;;;5053182;28;20462;-90
2022/06/27 10:39:00;;;;;;;4.97;4.50;;;26.20;57.80;;;;;;5059813;28;20456;-90
2022/06/27 10:41:39;;;;;;;4.73;4.33;;;26.10;58.20;;;;;;5057051;28;20525;-89
2022/06/27 10:44:31;;;;;;;4.80;4.40;;;26.00;58.90;;;;;;5055582;28;20479;-91
2022/06/27 10:46:59;;;;;;;5.73;5.10;;;25.90;59.10;;;;;;5056211;28;20440;-90
2022/06/27 10:49:28;;;;;;;5.23;4.70;;;25.90;59.20;;;;;;5038987;28;20533;-92
2022/06/27 10:52:32;;;;;;;5.53;5.03;;;26.10;58.90;;;;;;5058990;28;20510;-90
2022/06/27 10:55:00;;;;;;;5.73;5.23;;;26.30;58.60;;;;;;5045193;28;20488;-89
2022/06/27 10:57:44;;;;;;;5.27;4.77;;;26.50;58.50;;;;;;5065722;28;20450;-92
2022/06/27 11:00:27;;;;;;;4.77;4.37;;;26.90;56.80;;;;;;5065122;28;20531;-90
2022/06/27 11:02:55;;;;;;;4.93;4.53;;;27.30;56.60;;;;;;5011901;28;20481;-92
2022/06/27 11:05:23;;;;;;;3.77;3.57;;;27.80;55.00;;;;;;5045487;28;21173;-90
2022/06/27 11:07:53;;;;;;;4.10;3.80;;;28.10;54.30;;;;;;5063769;28;20456;-90
2022/06/27 11:10:21;;;;;;;3.33;3.00;;;27.80;53.20;;;;;;5059921;28;20436;-91
2022/06/27 11:12:49;;;;;;;4.07;3.77;;;27.70;53.10;;;;;;5062642;28;20464;-90
2022/06/27 11:15:16;;;;;;;4.00;3.70;;;27.60;54.20;;;;;;5066952;28;20456;-92
2022/06/27 11:17:45;;;;;;;4.00;3.50;;;27.50;53.80;;;;;;5059486;28;20463;-92
2022/06/27 11:20:15;;;;;;;4.20;3.67;;;27.60;53.90;;;;;;5047065;28;20611;-92
2022/06/27 11:22:44;;;;;;;4.90;3.00;;;27.70;54.80;;;;;;5060951;28;20453;-90
2022/06/27 11:25:11;;;;;;;4.13;3.83;;;27.70;55.00;;;;;;5060491;28;20449;-90
2022/06/27 11:27:57;;;;;;;4.13;3.77;;;27.70;54.60;;;;;;5051079;28;20457;-90
2022/06/27 11:33:24;;;;;;;4.07;3.77;;;27.90;54.90;;;;;;5057983;28;20476;-89
2022/06/27 11:35:52;;;;;;;3.60;3.30;;;27.80;54.10;;;;;;5078380;28;20510;-91
2022/06/27 11:38:30;;;;;;;3.70;3.40;;;27.80;54.10;;;;;;5062219;28;20445;-89
2022/06/27 11:41:06;;;;;;;3.73;3.47;;;27.50;53.00;;;;;;5066097;28;20450;-89
2022/06/27 11:43:56;;;;;;;3.53;3.33;;;27.30;53.80;;;;;;5057234;28;20464;-91
2022/06/27 11:46:34;;;;;;;3.33;3.13;;;26.70;54.40;;;;;;5031822;28;21148;-89
2022/06/27 11:49:04;;;;;;;3.30;2.97;;;26.50;55.90;;;;;;5059551;28;20440;-89
2022/06/27 11:51:34;;;;;;;3.33;3.10;;;26.70;56.20;;;;;;5033789;28;20445;-91
2022/06/27 11:54:04;;;;;;;3.67;3.40;;;27.20;55.80;;;;;;5063680;28;20464;-90
2022/06/27 11:56:35;;;;;;;3.60;3.30;;;27.50;55.40;;;;;;5052104;28;20464;-92
2022/06/27 11:59:06;;;;;;;5.00;3.37;;;27.70;54.30;;;;;;5047579;28;20536;-90
2022/06/27 12:01:33;;;;;;;3.80;3.50;;;27.90;53.60;;;;;;5054641;28;20472;-90
2022/06/27 12:04:11;;;;;;;4.00;3.40;;;28.20;52.50;;;;;;5060387;28;21241;-91
2022/06/27 12:06:46;;;;;;;3.80;3.50;;;28.10;52.10;;;;;;5078633;28;20522;-90
2022/06/27 12:09:14;;;;;;;3.00;2.80;;;28.10;51.90;;;;;;5078819;28;20545;-89
2022/06/27 12:12:00;;;;;;;4.20;2.97;;;28.10;52.20;;;;;;5039513;28;20473;-89
2022/06/27 12:14:30;;;;;;;2.90;2.70;;;27.80;51.70;;;;;;5069476;28;20437;-89
2022/06/27 12:16:59;;;;;;;2.80;2.60;;;27.80;52.10;;;;;;5058297;28;20490;-89
2022/06/27 12:19:28;;;;;;;2.30;2.20;;;27.90;50.70;;;;;;5056331;28;20451;-89
2022/06/27 12:21:55;;;;;;;3.27;2.63;;;28.10;51.60;;;;;;5073060;28;20973;-89
2022/06/27 12:24:23;;;;;;;2.83;2.50;;;28.30;50.40;;;;;;5036533;28;20445;-89
2022/06/27 12:26:50;;;;;;;2.67;2.47;;;28.00;50.50;;;;;;5053895;28;20464;-88
2022/06/27 12:29:18;;;;;;;2.80;2.53;;;28.20;50.20;;;;;;5045252;28;20474;-88
2022/06/27 12:31:47;;;;;;;2.57;2.40;;;27.90;50.20;;;;;;5043066;28;20491;-89
2022/06/27 12:34:14;;;;;;;2.77;2.53;;;28.00;51.10;;;;;;5071948;28;20452;-88
2022/06/27 12:36:41;;;;;;;3.40;3.10;;;28.10;50.40;;;;;;5046815;28;20458;-90
2022/06/27 12:39:09;;;;;;;3.00;2.80;;;28.10;50.20;;;;;;5059982;28;20506;-89
2022/06/27 12:41:37;;;;;;;3.37;3.07;;;27.90;50.80;;;;;;5035561;28;20580;-89
2022/06/27 12:44:05;;;;;;;2.90;2.70;;;27.80;51.30;;;;;;5030554;28;20812;-88
2022/06/27 12:46:33;;;;;;;3.77;3.07;;;27.90;51.00;;;;;;5063417;28;20445;-90
2022/06/27 12:49:01;;;;;;;3.23;3.03;;;27.80;51.70;;;;;;5055754;28;21129;-87
2022/06/27 12:51:29;;;;;;;3.00;2.80;;;27.60;51.70;;;;;;5055576;28;20441;-88
2022/06/27 12:53:57;;;;;;;3.50;3.20;;;27.60;52.10;;;;;;5045558;28;20445;-89
2022/06/27 12:56:25;;;;;;;3.63;3.33;;;27.70;52.10;;;;;;5044200;28;20488;-88
2022/06/27 12:58:52;;;;;;;3.67;3.47;;;27.60;52.40;;;;;;5059650;28;20469;-89
2022/06/27 13:01:20;;;;;;;3.60;3.30;;;27.40;52.50;;;;;;5059595;28;21843;-88
2022/06/27 13:03:47;;;;;;;4.50;4.10;;;27.30;53.00;;;;;;5036858;28;20957;-89
2022/06/27 13:06:15;;;;;;;3.67;3.37;;;27.30;53.70;;;;;;5055545;28;20584;-88